createdAt,value
2022-11-25T00:00:41.241Z,100167.50
2022-11-25T00:05:42.782Z,100164.53
2022-11-25T00:10:44.337Z,100157.28
2022-11-25T00:15:45.939Z,100150.16
2022-11-25T00:20:47.507Z,100169.88
2022-11-25T00:25:49.060Z,100164.34
2022-11-25T00:30:50.609Z,100168.66
2022-11-25T00:35:52.172Z,100164.81
2022-11-25T00:41:11.998Z,100178.19
2022-11-25T00:46:13.586Z,100175.53
2022-11-25T00:51:15.131Z,100176.28
2022-11-25T00:56:17.090Z,100180.53
2022-11-25T01:01:18.774Z,100183.09
2022-11-25T01:06:21.991Z,100178.59
2022-11-25T01:11:24.664Z,100191.81
2022-11-25T01:16:26.947Z,100194.78
2022-11-25T01:21:31.437Z,100187.25
2022-11-25T01:26:34.901Z,100187.00
2022-11-25T01:31:37.332Z,100187.00
2022-11-25T01:36:39.258Z,100180.88
2022-11-25T01:41:40.808Z,100189.06
2022-11-25T01:46:48.125Z,100188.28
2022-11-25T01:52:12.829Z,100196.00
2022-11-25T01:57:20.642Z,100193.91
2022-11-25T02:02:22.578Z,100194.41
2022-11-25T02:07:36.938Z,100191.59
2022-11-25T02:12:41.529Z,100175.66
2022-11-25T02:17:44.030Z,100181.28
2022-11-25T02:23:10.459Z,100178.88
2022-11-25T02:28:38.275Z,100187.34
2022-11-25T02:33:39.816Z,100188.38
2022-11-25T02:38:49.133Z,100197.72
2022-11-25T02:43:51.129Z,100207.13
2022-11-25T02:49:08.928Z,100199.78
2022-11-25T02:54:15.806Z,100192.19
2022-11-25T02:59:17.417Z,100203.41
2022-11-25T03:04:19.221Z,100202.09
2022-11-25T03:09:20.766Z,100202.22
2022-11-25T03:14:22.331Z,100209.97
2022-11-25T03:19:23.948Z,100207.91
2022-11-25T03:24:25.512Z,100212.03
2022-11-25T03:29:27.078Z,100206.88
2022-11-25T03:34:28.837Z,100214.63
2022-11-25T03:39:30.483Z,100212.91
2022-11-25T03:44:32.066Z,100214.28
2022-11-25T03:49:33.615Z,100224.59
2022-11-25T03:54:35.498Z,100223.88
2022-11-25T03:59:37.255Z,100225.56
2022-11-25T04:04:38.840Z,100227.94
2022-11-25T04:09:40.399Z,100224.59
2022-11-25T04:14:41.948Z,100231.28
2022-11-25T04:19:43.505Z,100231.22
2022-11-25T04:24:45.048Z,100228.97
2022-11-25T04:29:46.628Z,100232.25
2022-11-25T04:34:48.213Z,100235.69
2022-11-25T04:39:49.953Z,100224.97
2022-11-25T04:45:14.032Z,100233.97
2022-11-25T04:50:16.167Z,100242.63
2022-11-25T04:55:17.832Z,100235.19
2022-11-25T05:00:20.154Z,100235.81
2022-11-25T05:05:21.949Z,100237.44
2022-11-25T05:10:23.536Z,100241.41
2022-11-25T05:15:25.082Z,100240.38
2022-11-25T05:20:26.627Z,100241.25
2022-11-25T05:25:28.170Z,100247.97
2022-11-25T05:30:29.761Z,100247.44
2022-11-25T05:35:31.341Z,100265.31
2022-11-25T05:40:32.924Z,100267.34
2022-11-25T05:45:34.636Z,100274.75
2022-11-25T05:50:38.270Z,100269.41
2022-11-25T05:55:39.933Z,100288.00
2022-11-25T06:00:43.018Z,100281.69
2022-11-25T06:05:45.024Z,100296.63
2022-11-25T06:10:46.593Z,100295.09
2022-11-25T06:15:48.348Z,100293.78
2022-11-25T06:20:58.390Z,100290.69
2022-11-25T06:26:14.980Z,100297.13
2022-11-25T06:31:18.956Z,100308.50
2022-11-25T06:36:21.889Z,100308.16
2022-11-25T06:41:23.700Z,100311.25
2022-11-25T06:46:25.717Z,100312.25
2022-11-25T06:51:27.416Z,100309.44
2022-11-25T06:56:29.515Z,100314.34
2022-11-25T07:01:31.378Z,100314.97
2022-11-25T07:06:33.604Z,100316.78
2022-11-25T07:11:39.373Z,100324.22
2022-11-25T07:16:43.949Z,100328.19
2022-11-25T07:21:46.378Z,100334.56
2022-11-25T07:26:47.928Z,100338.91
2022-11-25T07:31:49.505Z,100341.81
2022-11-25T07:36:51.115Z,100338.63
2022-11-25T07:41:54.362Z,100344.94
2022-11-25T07:46:55.946Z,100344.59
2022-11-25T07:52:02.946Z,100352.41
2022-11-25T07:57:04.495Z,100349.09
2022-11-25T08:02:06.334Z,100343.19
2022-11-25T08:07:07.977Z,100338.53
2022-11-25T08:12:09.534Z,100355.66
2022-11-25T08:17:11.287Z,100358.28
2022-11-25T08:22:12.864Z,100351.84
2022-11-25T08:27:14.457Z,100354.09
2022-11-25T08:32:16.144Z,100350.13
2022-11-25T08:37:17.720Z,100352.91
2022-11-25T08:42:19.296Z,100357.03
2022-11-25T08:47:21.397Z,100356.78
2022-11-25T08:52:23.397Z,100369.34
2022-11-25T08:57:24.985Z,100373.22
2022-11-25T09:02:26.788Z,100364.88
2022-11-25T09:07:30.808Z,100372.84
2022-11-25T09:12:32.606Z,100375.50
2022-11-25T09:17:37.511Z,100369.75
2022-11-25T09:22:39.641Z,100376.47
2022-11-25T09:27:41.208Z,100387.19
2022-11-25T09:32:43.238Z,100377.38
2022-11-25T09:37:45.082Z,100373.66
2022-11-25T09:43:16.384Z,100373.03
2022-11-25T09:48:55.092Z,100369.88
2022-11-25T09:54:15.077Z,100370.97
2022-11-25T09:59:24.831Z,100369.13
2022-11-25T10:04:36.556Z,100348.03
2022-11-25T10:09:38.485Z,100358.78
2022-11-25T10:14:46.953Z,100359.16
2022-11-25T10:19:51.703Z,100366.47
2022-11-25T10:24:57.504Z,100358.78
2022-11-25T10:30:05.146Z,100365.47
2022-11-25T10:35:15.555Z,100365.97
2022-11-25T10:40:17.723Z,100375.66
2022-11-25T10:45:32.026Z,100362.78
2022-11-25T10:51:02.840Z,100375.31
2022-11-25T10:56:18.308Z,100371.19
2022-11-25T11:01:19.890Z,100376.56
2022-11-25T11:06:35.418Z,100379.97
2022-11-25T11:11:48.989Z,100382.06
2022-11-25T11:16:56.018Z,100377.00
2022-11-25T11:22:13.970Z,100379.44
2022-11-25T11:27:21.418Z,100369.75
2022-11-25T11:32:24.953Z,100367.06
2022-11-25T11:37:40.855Z,100369.75
2022-11-25T11:42:52.091Z,100363.94
2022-11-25T11:48:12.260Z,100366.13
2022-11-25T11:53:13.754Z,100359.53
2022-11-25T11:58:37.644Z,100366.00
2022-11-25T12:03:51.555Z,100366.56
2022-11-25T12:09:09.544Z,100370.53
2022-11-25T12:14:17.118Z,100374.06
2022-11-25T12:19:33.637Z,100370.97
2022-11-25T12:24:41.074Z,100357.81
2022-11-25T12:30:01.943Z,100357.41
2022-11-25T12:35:22.658Z,100357.41
2022-11-25T12:40:32.242Z,100364.50
2022-11-25T12:45:33.839Z,100369.66
2022-11-25T12:50:50.624Z,100359.34
2022-11-25T12:55:54.739Z,100360.19
2022-11-25T13:01:12.910Z,100363.66
2022-11-25T13:06:28.989Z,100361.94
2022-11-25T13:11:33.639Z,100373.13
2022-11-25T13:16:35.974Z,100368.91
2022-11-25T13:22:06.464Z,100367.72
2022-11-25T13:27:40.216Z,100375.34
2022-11-25T13:32:42.396Z,100369.97
2022-11-25T13:37:44.014Z,100374.03
2022-11-25T13:42:45.854Z,100385.38
2022-11-25T13:47:49.446Z,100378.69
2022-11-25T13:53:00.647Z,100365.97
2022-11-25T13:58:04.935Z,100377.19
2022-11-25T14:03:44.919Z,100387.88
2022-11-25T14:09:01.823Z,100389.00
2022-11-25T14:14:03.354Z,100398.06
2022-11-25T14:19:52.739Z,100386.13
2022-11-25T14:25:26.796Z,100392.69
2022-11-25T14:30:28.639Z,100399.56
2022-11-25T14:35:45.094Z,100403.25
2022-11-25T14:40:58.053Z,100400.56
2022-11-25T14:46:17.624Z,100406.91
2022-11-25T14:51:19.646Z,100415.00
2022-11-25T14:56:29.168Z,100419.59
2022-11-25T15:01:33.471Z,100422.31
2022-11-25T15:06:43.473Z,100424.22
2022-11-25T15:11:45.446Z,100433.84
2022-11-25T15:16:47.157Z,100424.78
2022-11-25T15:22:22.018Z,100423.28
2022-11-25T15:27:28.823Z,100429.53
2022-11-25T15:32:37.523Z,100429.06
2022-11-25T15:37:39.116Z,100436.38
2022-11-25T15:42:42.438Z,100428.41
2022-11-25T15:47:45.494Z,100435.06
2022-11-25T15:52:51.887Z,100442.38
2022-11-25T15:57:54.912Z,100435.28
2022-11-25T16:02:58.301Z,100433.72
2022-11-25T16:08:21.359Z,100432.78
2022-11-25T16:13:23.223Z,100437.31
2022-11-25T16:18:40.439Z,100443.19
2022-11-25T16:23:47.727Z,100446.84
2022-11-25T16:28:55.638Z,100452.63
2022-11-25T16:34:01.970Z,100441.66
2022-11-25T16:39:03.667Z,100447.25
2022-11-25T16:44:10.932Z,100451.09
2022-11-25T16:49:17.968Z,100459.34
2022-11-25T16:54:21.432Z,100466.31
2022-11-25T16:59:30.584Z,100457.06
2022-11-25T17:04:32.149Z,100460.31
2022-11-25T17:09:33.695Z,100462.03
2022-11-25T17:14:38.094Z,100472.72
2022-11-25T17:19:40.123Z,100471.88
2022-11-25T17:24:42.453Z,100480.34
2022-11-25T17:29:45.024Z,100478.03
2022-11-25T17:34:46.781Z,100482.63
2022-11-25T17:39:48.418Z,100488.69
2022-11-25T17:44:52.994Z,100478.03
2022-11-25T17:49:55.923Z,100481.13
2022-11-25T17:54:57.459Z,100483.41
2022-11-25T17:59:59.215Z,100477.63
2022-11-25T18:05:01.360Z,100484.84
2022-11-25T18:10:02.999Z,100494.34
2022-11-25T18:15:08.350Z,100495.09
2022-11-25T18:20:19.584Z,100499.09
2022-11-25T18:25:27.034Z,100494.50
2022-11-25T18:30:31.031Z,100502.16
2022-11-25T18:35:36.691Z,100497.16
2022-11-25T18:40:42.433Z,100513.63
2022-11-25T18:45:45.010Z,100523.72
2022-11-25T18:50:49.227Z,100529.63
2022-11-25T18:55:50.898Z,100535.03
2022-11-25T19:00:54.652Z,100539.16
2022-11-25T19:05:59.422Z,100543.34
2022-11-25T19:11:01.150Z,100538.00
2022-11-25T19:16:08.037Z,100540.56
2022-11-25T19:21:15.984Z,100549.41
2022-11-25T19:26:26.522Z,100537.59
2022-11-25T19:31:32.184Z,100542.94
2022-11-25T19:36:35.085Z,100560.69
2022-11-25T19:41:36.867Z,100563.69
2022-11-25T19:47:13.089Z,100578.63
2022-11-25T19:52:04.503Z,100578.34
2022-11-25T19:57:15.627Z,100571.09
2022-11-25T20:02:20.633Z,100584.47
2022-11-25T20:07:22.804Z,100586.53
2022-11-25T20:12:28.468Z,100584.94
2022-11-25T20:17:32.779Z,100588.88
2022-11-25T20:22:37.223Z,100603.38
2022-11-25T20:27:38.774Z,100604.00
2022-11-25T20:32:40.463Z,100612.31
2022-11-25T20:37:54.372Z,100611.81
2022-11-25T20:42:57.214Z,100619.22
2022-11-25T20:47:59.257Z,100623.09
2022-11-25T20:53:00.859Z,100629.41
2022-11-25T20:58:10.247Z,100635.06
2022-11-25T21:03:11.725Z,100657.53
2022-11-25T21:08:25.835Z,100646.53
2022-11-25T21:13:31.048Z,100647.28
2022-11-25T21:18:32.604Z,100654.19
2022-11-25T21:23:36.993Z,100663.19
2022-11-25T21:28:42.510Z,100669.44
2022-11-25T21:33:48.387Z,100666.13
2022-11-25T21:38:52.933Z,100671.69
2022-11-25T21:43:56.039Z,100677.13
2022-11-25T21:48:57.612Z,100686.88
2022-11-25T21:53:59.163Z,100685.78
2022-11-25T21:59:03.102Z,100688.03
2022-11-25T22:04:04.769Z,100692.94
2022-11-25T22:09:06.306Z,100685.72
2022-11-25T22:14:19.282Z,100692.66
2022-11-25T22:19:23.528Z,100693.25
2022-11-25T22:24:25.088Z,100692.94
2022-11-25T22:29:33.209Z,100689.13
2022-11-25T22:34:34.774Z,100705.69
2022-11-25T22:39:36.354Z,100685.19
2022-11-25T22:44:43.006Z,100700.78
2022-11-25T22:49:47.456Z,100686.00
2022-11-25T22:54:49.446Z,100704.59
2022-11-25T22:59:50.992Z,100711.47
2022-11-25T23:04:56.107Z,100713.34
2022-11-25T23:09:57.704Z,100729.84
2022-11-25T23:14:59.239Z,100727.69
2022-11-25T23:20:00.799Z,100730.41
2022-11-25T23:25:02.334Z,100731.28
2022-11-25T23:30:04.155Z,100731.41
2022-11-25T23:35:06.329Z,100743.00
2022-11-25T23:40:17.306Z,100745.59
2022-11-25T23:45:21.199Z,100742.28
2022-11-25T23:50:25.465Z,100741.13
2022-11-25T23:55:31.164Z,100752.41
